Miami — WDF6958 — position and weather

sailwx.info

Track history (hours):
 
Tides and Currents Weather Stations Pressure Air Temp Water Temp Dewpoint Dewpoint Depression Visibility Wind Speed Wind Dir Waves Ship Positions

Miami

Owner: Kirby Inland Marine LP, Houston, TX. More information available from US FCC via Universal Licensing System and Coast Guard Vessel Documentation Center.

Last reported at 2017-Dec-15 09:28 UTC. Time now 2017-Dec-15 09:57 UTC.
Position N 25°47' W 080°10'.

Length 83 m; draft 4 m.

Type: Tug. MMSI: 367479630.

Date/timePositionNaut miles runAvg speedWind from/ knotsBaromVisibWave heightAir tempDewpointWater temp
2017-Dec-15 09:28N 25°47' W 080°10'0 0.0
2017-Dec-15 08:58N 25°47' W 080°10'0 0.0
2017-Dec-15 08:28N 25°47' W 080°10'0 0.0
2017-Dec-15 07:58N 25°47' W 080°10'0 0.0
2017-Dec-15 07:28N 25°47' W 080°10'0 0.0
2017-Dec-15 06:58N 25°47' W 080°10'0 0.0
2017-Dec-15 06:28N 25°47' W 080°10'0 0.0
2017-Dec-15 05:58N 25°47' W 080°10'0 0.0
2017-Dec-15 05:28N 25°47' W 080°10'0 0.0
2017-Dec-15 04:58N 25°47' W 080°10'0 0.0
2017-Dec-15 04:25N 25°47' W 080°10'0 0.0
2017-Dec-15 03:55N 25°47' W 080°10'2 1.1
2017-Dec-15 02:29N 25°46' W 080°08'0 0.0
2017-Dec-15 00:59N 25°46' W 080°08'0 0.0
2017-Dec-15 00:29N 25°46' W 080°08'2 0.3
2017-Dec-14 18:28N 25°46' W 080°11'1 1.4
2017-Dec-14 18:00N 25°46' W 080°10'1 2.4
2017-Dec-14 17:30N 25°46' W 080°09'2 3.8
2017-Dec-14 16:59N 25°47' W 080°11'0 0.0
2017-Dec-14 16:29N 25°47' W 080°11'0 0.0
2017-Dec-14 15:59N 25°47' W 080°11'0 0.0
2017-Dec-14 14:59N 25°47' W 080°11'0 0.0
2017-Dec-14 14:29N 25°47' W 080°11'0 0.0
2017-Dec-14 13:59N 25°47' W 080°11'0 0.0
2017-Dec-14 13:29N 25°47' W 080°11'0 0.0
2017-Dec-14 12:59N 25°47' W 080°11'1 1.7
2017-Dec-14 12:30N 25°46' W 080°10'0 0.1
2017-Dec-14 12:00N 25°46' W 080°10'1 2.6
2017-Dec-14 11:30N 25°46' W 080°08'1 2.4
2017-Dec-14 10:59N 25°46' W 080°10'0 0.0
2017-Dec-14 10:29N 25°46' W 080°10'0 0.0
2017-Dec-14 09:59N 25°46' W 080°10'0 0.0
2017-Dec-14 09:29N 25°46' W 080°10'0 0.0
2017-Dec-14 08:59N 25°46' W 080°10'0 0.0
2017-Dec-14 08:29N 25°46' W 080°10'0 0.0
2017-Dec-14 07:59N 25°46' W 080°10'0 0.0
2017-Dec-14 07:29N 25°46' W 080°10'0 0.0
2017-Dec-14 06:50N 25°46' W 080°10'0 0.0
2017-Dec-14 06:26N 25°46' W 080°10'0 0.0
2017-Dec-14 05:59N 25°46' W 080°10'0 0.0
2017-Dec-14 05:29N 25°46' W 080°10'0 0.0
2017-Dec-14 04:56N 25°46' W 080°10'0 0.0
2017-Dec-14 04:29N 25°46' W 080°10'0 0.0
2017-Dec-14 03:59N 25°46' W 080°10'0 0.0
2017-Dec-14 03:26N 25°46' W 080°10'0 0.0
2017-Dec-14 02:56N 25°46' W 080°10'0 0.0
2017-Dec-14 02:29N 25°46' W 080°10'0 0.0
2017-Dec-14 01:59N 25°46' W 080°10'0 0.0
2017-Dec-14 01:26N 25°46' W 080°10'0 0.0
2017-Dec-14 00:56N 25°46' W 080°10'0 0.0
2017-Dec-14 00:29N 25°46' W 080°10'0 0.0
2017-Dec-13 23:59N 25°46' W 080°10'0 0.0
2017-Dec-13 23:30N 25°46' W 080°10'0 0.8
2017-Dec-13 23:00N 25°46' W 080°10'0 0.0
2017-Dec-13 22:30N 25°46' W 080°10'0 0.0
2017-Dec-13 22:01N 25°46' W 080°10'0 0.0
2017-Dec-13 21:30N 25°46' W 080°10'0 0.0
2017-Dec-13 21:00N 25°46' W 080°10'0 0.0
2017-Dec-13 20:30N 25°46' W 080°10'0 0.0
2017-Dec-13 20:00N 25°46' W 080°10'0 0.0
2017-Dec-13 19:31N 25°46' W 080°10'0 0.0
2017-Dec-13 19:01N 25°46' W 080°10'1 2.5
2017-Dec-13 18:30N 25°46' W 080°08'2 3.5
2017-Dec-13 18:00N 25°46' W 080°10'0 0.5
2017-Dec-13 17:30N 25°46' W 080°11'0 0.0
2017-Dec-13 16:55N 25°46' W 080°11'0 0.0
2017-Dec-13 16:28N 25°46' W 080°11'0 0.0
2017-Dec-13 15:55N 25°46' W 080°11'0 0.0
2017-Dec-13 15:22N 25°46' W 080°11'0 0.0
2017-Dec-13 14:55N 25°46' W 080°11'0 0.0
2017-Dec-13 14:25N 25°46' W 080°11'0 0.0
2017-Dec-13 13:58N 25°46' W 080°11'0 0.0
2017-Dec-13 13:25N 25°46' W 080°11'0 0.0
2017-Dec-13 12:58N 25°46' W 080°11'0 0.0
2017-Dec-13 12:28N 25°46' W 080°11'1 2.2
2017-Dec-13 12:00N 25°46' W 080°10'1 1.4
2017-Dec-13 11:30N 25°46' W 080°09'1 2.6
2017-Dec-13 10:59N 25°46' W 080°10'0 0.0
2017-Dec-13 10:29N 25°46' W 080°10'0 0.0
2017-Dec-13 09:56N 25°46' W 080°10'0 0.0
2017-Dec-13 09:26N 25°46' W 080°10'0 0.0
2017-Dec-13 08:59N 25°46' W 080°10'0 0.0
2017-Dec-13 08:29N 25°46' W 080°10'0 0.0
2017-Dec-13 07:59N 25°46' W 080°10'0 0.0
2017-Dec-13 07:29N 25°46' W 080°10'0 0.0
2017-Dec-13 06:59N 25°46' W 080°10'0 0.0
2017-Dec-13 06:29N 25°46' W 080°10'0 0.0
2017-Dec-13 05:59N 25°46' W 080°10'0 0.0
2017-Dec-13 05:29N 25°46' W 080°10'0 0.0
2017-Dec-13 04:59N 25°46' W 080°10'0 0.0
2017-Dec-13 04:29N 25°46' W 080°10'0 0.0
2017-Dec-13 03:59N 25°46' W 080°10'0 0.0
2017-Dec-13 03:29N 25°46' W 080°10'0 0.0
2017-Dec-13 02:59N 25°46' W 080°10'0 0.0
2017-Dec-13 02:29N 25°46' W 080°10'0 0.0
2017-Dec-13 01:59N 25°46' W 080°10'0 0.0
2017-Dec-13 01:29N 25°46' W 080°10'0 0.0
2017-Dec-13 00:59N 25°46' W 080°10'0 0.0
2017-Dec-13 00:29N 25°46' W 080°10'2 3.2
2017-Dec-12 23:59N 25°46' W 080°09'0 0.0
2017-Dec-12 23:29N 25°46' W 080°09'0 0.0
2017-Dec-12 22:59N 25°46' W 080°09'0 0.0
2017-Dec-12 22:29N 25°46' W 080°09'0 0.0
2017-Dec-12 21:59N 25°46' W 080°09'0 0.0
2017-Dec-12 21:29N 25°46' W 080°09'0 0.1
2017-Dec-12 20:56N 25°46' W 080°08'0 0.0
2017-Dec-12 20:29N 25°46' W 080°08'0 0.0
2017-Dec-12 19:53N 25°46' W 080°08'0 0.0
2017-Dec-12 19:29N 25°46' W 080°08'2 3.2
2017-Dec-12 18:58N 25°47' W 080°10'0 0.0
2017-Dec-12 18:25N 25°47' W 080°10'0 0.0
2017-Dec-12 17:58N 25°47' W 080°10'1 2.0
2017-Dec-12 17:30N 25°46' W 080°09'1 1.7
2017-Dec-12 16:54N 25°46' W 080°10'0 0.8
2017-Dec-12 16:29N 25°46' W 080°11'0 0.0
2017-Dec-12 15:59N 25°46' W 080°11'0 0.0
2017-Dec-12 15:29N 25°46' W 080°11'0 0.0
2017-Dec-12 14:59N 25°46' W 080°11'0 0.0
2017-Dec-12 14:26N 25°46' W 080°11'0 0.0
2017-Dec-12 13:59N 25°46' W 080°11'0 0.0
2017-Dec-12 13:26N 25°46' W 080°11'0 0.0
2017-Dec-12 12:59N 25°46' W 080°11'0 0.9
2017-Dec-12 12:29N 25°46' W 080°10'0 0.0
2017-Dec-12 11:59N 25°46' W 080°10'0 0.0
2017-Dec-12 11:29N 25°46' W 080°10'0 0.0
2017-Dec-12 10:59N 25°46' W 080°10'0 0.0
2017-Dec-12 10:29N 25°46' W 080°10'0 0.0
2017-Dec-12 09:59N 25°46' W 080°10'0 0.0
2017-Dec-12 09:29N 25°46' W 080°10'0 0.0
2017-Dec-12 08:59N 25°46' W 080°10'0 0.0
2017-Dec-12 08:29N 25°46' W 080°10'0 0.0
2017-Dec-12 07:59N 25°46' W 080°10'0 0.0
2017-Dec-12 07:26N 25°46' W 080°10'0 0.0
2017-Dec-12 06:56N 25°46' W 080°10'0 0.0
2017-Dec-12 06:29N 25°46' W 080°10'0 0.0
2017-Dec-12 05:59N 25°46' W 080°10'0 0.0
2017-Dec-12 05:29N 25°46' W 080°10'0 0.0
2017-Dec-12 04:59N 25°46' W 080°10'0 0.0
2017-Dec-12 04:29N 25°46' W 080°10'0 0.0
2017-Dec-12 03:59N 25°46' W 080°10'0 0.0
2017-Dec-12 03:26N 25°46' W 080°10'0 0.0
2017-Dec-12 02:59N 25°46' W 080°10'0 0.0
2017-Dec-12 02:26N 25°46' W 080°10'0 0.0
2017-Dec-12 01:56N 25°46' W 080°10'0 0.0
2017-Dec-12 01:26N 25°46' W 080°10'0 0.0
2017-Dec-12 00:59N 25°46' W 080°10'0 0.0
2017-Dec-12 00:29N 25°46' W 080°10'0 0.0
2017-Dec-11 23:59N 25°46' W 080°10'0 0.0
2017-Dec-11 23:29N 25°46' W 080°10'0 0.0
2017-Dec-11 22:56N 25°46' W 080°10'0 0.0
2017-Dec-11 22:29N 25°46' W 080°10'0 0.0
2017-Dec-11 21:59N 25°46' W 080°10'0 0.0
2017-Dec-11 21:29N 25°46' W 080°10'0 0.0
2017-Dec-11 20:59N 25°46' W 080°10'0 0.0
2017-Dec-11 20:29N 25°46' W 080°10'1 3.1
2017-Dec-11 20:00N 25°46' W 080°09'1 2.2
2017-Dec-11 19:30N 25°46' W 080°10'0 0.6
2017-Dec-11 18:58N 25°46' W 080°10'2 3.4
2017-Dec-11 18:30N 25°46' W 080°09'0 0.0
2017-Dec-11 15:35N 25°46' W 080°09'0 0.6
2017-Dec-11 15:22N 25°46' W 080°08'1 3.3
2017-Dec-11 14:57N 25°46' W 080°10'1 1.3
2017-Dec-11 14:30N 25°46' W 080°11'0 0.0
2017-Dec-11 14:00N 25°46' W 080°11'0 0.0
2017-Dec-11 13:30N 25°46' W 080°11'0 0.0
2017-Dec-11 13:00N 25°46' W 080°11'0 0.0
2017-Dec-11 12:30N 25°46' W 080°11'0 0.0
2017-Dec-11 12:00N 25°46' W 080°11'0 0.0
2017-Dec-11 11:30N 25°46' W 080°11'0 0.0
2017-Dec-11 11:00N 25°46' W 080°11'0 0.0
2017-Dec-11 10:30N 25°46' W 080°11'0 0.0
2017-Dec-11 10:00N 25°46' W 080°11'0 0.0
2017-Dec-11 09:30N 25°46' W 080°11'0 0.0
2017-Dec-11 09:00N 25°46' W 080°11'0 0.0
2017-Dec-11 08:30N 25°46' W 080°11'0 0.0
2017-Dec-11 08:00N 25°46' W 080°11'0 0.0
2017-Dec-11 07:30N 25°46' W 080°11'0 0.0
2017-Dec-11 06:57N 25°46' W 080°11'0 0.0
2017-Dec-11 06:30N 25°46' W 080°11'0 0.0
2017-Dec-11 06:00N 25°46' W 080°11'0 0.0
2017-Dec-11 05:27N 25°46' W 080°11'0 0.0
2017-Dec-11 05:00N 25°46' W 080°11'0 0.0
2017-Dec-11 04:30N 25°46' W 080°11'0 0.0
2017-Dec-11 04:00N 25°46' W 080°11'0 0.0
2017-Dec-11 03:30N 25°46' W 080°11'0 0.0
2017-Dec-11 03:00N 25°46' W 080°11'0 0.0
2017-Dec-11 02:30N 25°46' W 080°11'0 0.0
2017-Dec-11 02:00N 25°46' W 080°11'0 0.0
2017-Dec-11 01:30N 25°46' W 080°11'0 0.0
2017-Dec-11 01:00N 25°46' W 080°11'0 0.0
2017-Dec-11 00:30N 25°46' W 080°11'0 0.0
2017-Dec-11 00:00N 25°46' W 080°11'0 0.0
2017-Dec-10 23:30N 25°46' W 080°11'0 0.0
2017-Dec-10 23:00N 25°46' W 080°11'0 0.0
2017-Dec-10 22:27N 25°46' W 080°11'0 0.0
2017-Dec-10 22:00N 25°46' W 080°11'0 0.0
2017-Dec-10 21:30N 25°46' W 080°11'0 0.0
2017-Dec-10 21:00N 25°46' W 080°11'0 0.0
2017-Dec-10 20:30N 25°46' W 080°11'0 0.0
2017-Dec-10 20:00N 25°46' W 080°11'0 0.0
2017-Dec-10 19:30N 25°46' W 080°11'0 0.0
2017-Dec-10 18:54N 25°46' W 080°11'1 1.5
2017-Dec-10 18:26N 25°46' W 080°10'1 1.5
2017-Dec-10 17:56N 25°46' W 080°11'0 0.0
2017-Dec-10 17:23N 25°46' W 080°11'0 0.0
2017-Dec-10 16:56N 25°46' W 080°11'0 0.0
2017-Dec-10 16:20N 25°46' W 080°11'0 0.0
2017-Dec-10 15:59N 25°46' W 080°11'0 0.0
2017-Dec-10 15:23N 25°46' W 080°11'0 0.0
2017-Dec-10 14:59N 25°46' W 080°11'0 0.0
2017-Dec-10 14:29N 25°46' W 080°11'0 0.0
2017-Dec-10 13:59N 25°46' W 080°11'0 0.0
2017-Dec-10 13:26N 25°46' W 080°11'0 0.0
2017-Dec-10 12:59N 25°46' W 080°11'1 1.5
2017-Dec-10 12:27N 25°46' W 080°10'0 0.0
2017-Dec-10 12:00N 25°46' W 080°10'0 0.0
2017-Dec-10 11:30N 25°46' W 080°10'0 0.0
2017-Dec-10 11:00N 25°46' W 080°10'0 0.0
2017-Dec-10 10:30N 25°46' W 080°10'0 0.0
2017-Dec-10 09:54N 25°46' W 080°10'0 0.0
2017-Dec-10 09:27N 25°46' W 080°10'0 0.0
2017-Dec-10 09:00N 25°46' W 080°10'0 0.0
2017-Dec-10 08:30N 25°46' W 080°10'0 0.0
2017-Dec-10 08:00N 25°46' W 080°10'0 0.0
2017-Dec-10 07:30N 25°46' W 080°10'0 0.0
2017-Dec-10 07:00N 25°46' W 080°10'0 0.0
2017-Dec-10 06:30N 25°46' W 080°10'0 0.0
2017-Dec-10 06:00N 25°46' W 080°10'0 0.0
2017-Dec-10 05:30N 25°46' W 080°10'0 0.0
2017-Dec-10 05:00N 25°46' W 080°10'0 0.0
2017-Dec-10 04:30N 25°46' W 080°10'0 0.0
2017-Dec-10 04:00N 25°46' W 080°10'0 0.0
2017-Dec-10 03:30N 25°46' W 080°10'0 0.0
2017-Dec-10 03:00N 25°46' W 080°10'0 0.0
2017-Dec-10 02:30N 25°46' W 080°10'0 0.0
2017-Dec-10 02:00N 25°46' W 080°10'0 0.0
2017-Dec-10 01:30N 25°46' W 080°10'0 0.0
2017-Dec-10 01:00N 25°46' W 080°10'0 0.0
2017-Dec-10 00:30N 25°46' W 080°10'0 0.0
2017-Dec-10 00:00N 25°46' W 080°10'0 0.0
2017-Dec-09 23:30N 25°46' W 080°10'0 0.0
2017-Dec-09 23:00N 25°46' W 080°10'0 0.0
2017-Dec-09 22:30N 25°46' W 080°10'0 0.0
2017-Dec-09 22:00N 25°46' W 080°10'0 0.0
2017-Dec-09 21:30N 25°46' W 080°10'0 0.0
2017-Dec-09 21:00N 25°46' W 080°10'0 0.0
2017-Dec-09 20:30N 25°46' W 080°10'0 0.0
2017-Dec-09 20:00N 25°46' W 080°10'0 0.0
2017-Dec-09 19:30N 25°46' W 080°10'0 0.5
2017-Dec-09 19:00N 25°46' W 080°10'1 1.2
2017-Dec-09 18:29N 25°46' W 080°10'0 0.0
2017-Dec-09 17:59N 25°46' W 080°10'0 0.0
2017-Dec-09 17:23N 25°47' W 080°10'0 0.0
2017-Dec-09 16:59N 25°47' W 080°10'0 0.0
2017-Dec-09 16:29N 25°47' W 080°10'0 0.0
2017-Dec-09 15:56N 25°47' W 080°10'0 0.0
2017-Dec-09 15:29N 25°47' W 080°10'0 0.0
2017-Dec-09 14:56N 25°47' W 080°10'0 0.0
2017-Dec-09 14:29N 25°47' W 080°10'0 0.0
2017-Dec-09 13:56N 25°47' W 080°10'0 0.0
2017-Dec-09 13:29N 25°47' W 080°10'0 0.0
2017-Dec-09 12:59N 25°47' W 080°10'0 0.0
2017-Dec-09 12:29N 25°47' W 080°10'1 1.7
2017-Dec-09 12:00N 25°46' W 080°09'1 1.4
2017-Dec-09 11:29N 25°46' W 080°10'0 0.2
2017-Dec-09 10:58N 25°46' W 080°10'0 0.0
2017-Dec-09 10:28N 25°46' W 080°10'0 0.0
2017-Dec-09 09:58N 25°46' W 080°10'0 0.0
2017-Dec-09 09:25N 25°46' W 080°10'0 0.0
2017-Dec-09 08:58N 25°46' W 080°10'0 0.0
2017-Dec-09 08:25N 25°46' W 080°10'0 0.0
2017-Dec-09 07:52N 25°46' W 080°10'0 0.0
2017-Dec-09 07:28N 25°46' W 080°10'0 0.0
2017-Dec-09 06:58N 25°46' W 080°10'0 0.0
2017-Dec-09 06:28N 25°46' W 080°10'0 0.0
2017-Dec-09 05:58N 25°46' W 080°10'0 0.0
2017-Dec-09 05:28N 25°46' W 080°10'0 0.0
2017-Dec-09 04:58N 25°46' W 080°10'0 0.0
2017-Dec-09 04:28N 25°46' W 080°10'0 0.0
2017-Dec-09 03:58N 25°46' W 080°10'0 0.0
2017-Dec-09 03:28N 25°46' W 080°10'0 0.0
2017-Dec-09 02:58N 25°46' W 080°10'0 0.0
2017-Dec-09 02:25N 25°46' W 080°10'0 0.0
2017-Dec-09 01:58N 25°46' W 080°10'0 0.0
2017-Dec-09 01:28N 25°46' W 080°10'0 0.0
2017-Dec-09 00:58N 25°46' W 080°10'0 0.0
2017-Dec-09 00:28N 25°46' W 080°10'0 0.0
2017-Dec-08 23:58N 25°46' W 080°10'0 0.0
2017-Dec-08 23:28N 25°46' W 080°10'0 0.0
2017-Dec-08 22:58N 25°46' W 080°10'0 0.0
2017-Dec-08 22:28N 25°46' W 080°10'0 0.0
2017-Dec-08 21:58N 25°46' W 080°10'0 0.0
2017-Dec-08 21:28N 25°46' W 080°10'0 0.0
2017-Dec-08 20:58N 25°46' W 080°10'0 0.2
2017-Dec-08 20:29N 25°46' W 080°10'0 0.1
2017-Dec-08 20:00N 25°46' W 080°10'1 2.1
2017-Dec-08 19:28N 25°46' W 080°09'1 2.2
2017-Dec-08 19:00N 25°46' W 080°09'0 0.8
2017-Dec-08 18:29N 25°47' W 080°10'0 0.0
2017-Dec-08 17:59N 25°47' W 080°10'0 0.0
2017-Dec-08 17:29N 25°47' W 080°10'0 0.0
2017-Dec-08 16:59N 25°47' W 080°10'0 0.0
2017-Dec-08 16:29N 25°47' W 080°10'0 0.0
2017-Dec-08 15:59N 25°47' W 080°10'0 0.0
2017-Dec-08 15:29N 25°47' W 080°10'0 0.0
2017-Dec-08 14:59N 25°47' W 080°10'0 0.0
2017-Dec-08 14:29N 25°47' W 080°10'0 0.0
2017-Dec-08 13:59N 25°47' W 080°10'0 0.0
2017-Dec-08 13:29N 25°47' W 080°10'1 2.6
2017-Dec-08 13:00N 25°46' W 080°09'1 1.9
2017-Dec-08 12:28N 25°46' W 080°10'1 1.0
2017-Dec-08 11:58N 25°46' W 080°10'0 0.0
2017-Dec-08 11:28N 25°46' W 080°10'0 0.0
2017-Dec-08 10:58N 25°46' W 080°10'0 0.0
2017-Dec-08 10:28N 25°46' W 080°10'0 0.0
2017-Dec-08 09:58N 25°46' W 080°10'0 0.0
2017-Dec-08 09:22N 25°46' W 080°10'0 0.0
2017-Dec-08 08:58N 25°46' W 080°10'0 0.0
2017-Dec-08 08:28N 25°46' W 080°10'0 0.0
2017-Dec-08 07:58N 25°46' W 080°10'0 0.0
2017-Dec-08 07:22N 25°46' W 080°10'0 0.0
2017-Dec-08 06:55N 25°46' W 080°10'0 0.0
2017-Dec-08 06:28N 25°46' W 080°10'0 0.0
2017-Dec-08 05:55N 25°46' W 080°10'0 0.0
2017-Dec-08 05:28N 25°46' W 080°10'0 0.0
2017-Dec-08 04:55N 25°46' W 080°10'0 0.0
2017-Dec-08 04:28N 25°46' W 080°10'0 0.0
2017-Dec-08 03:58N 25°46' W 080°10'0 0.0
2017-Dec-08 03:28N 25°46' W 080°10'0 0.0
2017-Dec-08 02:58N 25°46' W 080°10'0 0.0
2017-Dec-08 02:28N 25°46' W 080°10'0 0.0
2017-Dec-08 01:58N 25°46' W 080°10'0 0.0
2017-Dec-08 01:28N 25°46' W 080°10'0 0.0
2017-Dec-08 00:58N 25°46' W 080°10'0 0.0
2017-Dec-08 00:28N 25°46' W 080°10'0 0.0
2017-Dec-07 23:58N 25°46' W 080°10'0 0.0
2017-Dec-07 23:28N 25°46' W 080°10'0 0.0
2017-Dec-07 22:58N 25°46' W 080°10'0 0.0
2017-Dec-07 22:28N 25°46' W 080°10'0 0.3
2017-Dec-07 22:00N 25°46' W 080°11'0 0.0
2017-Dec-07 21:30N 25°46' W 080°11'0 0.0
2017-Dec-07 21:00N 25°46' W 080°11'0 0.0
2017-Dec-07 20:30N 25°46' W 080°11'0 0.0
2017-Dec-07 20:00N 25°46' W 080°11'0 0.0
2017-Dec-07 19:30N 25°46' W 080°11'0 0.0
2017-Dec-07 18:58N 25°46' W 080°11'0 0.0
2017-Dec-07 18:29N 25°46' W 080°11'0 0.0
2017-Dec-07 17:59N 25°46' W 080°11'0 0.0
2017-Dec-07 17:28N 25°46' W 080°11'1 1.4
2017-Dec-07 16:59N 25°46' W 080°10'0 1.0
2017-Dec-07 16:30N 25°47' W 080°10'0 0.2
2017-Dec-07 15:59N 25°47' W 080°10'0 0.0
2017-Dec-07 15:29N 25°47' W 080°10'0 0.0
2017-Dec-07 14:59N 25°47' W 080°10'0 0.0
2017-Dec-07 14:29N 25°47' W 080°10'0 0.0
2017-Dec-07 13:59N 25°47' W 080°10'0 0.0
2017-Dec-07 13:29N 25°47' W 080°10'0 0.0
2017-Dec-07 12:59N 25°47' W 080°10'0 0.6
2017-Dec-07 12:28N 25°47' W 080°10'0 0.0
2017-Dec-07 11:55N 25°47' W 080°10'0 0.0
2017-Dec-07 11:25N 25°47' W 080°10'0 0.0
2017-Dec-07 10:55N 25°47' W 080°10'0 0.0
2017-Dec-07 10:28N 25°47' W 080°10'0 0.0
2017-Dec-07 09:58N 25°47' W 080°10'0 0.0
2017-Dec-07 09:28N 25°47' W 080°10'0 0.0
2017-Dec-07 08:58N 25°47' W 080°10'0 0.0
2017-Dec-07 08:28N 25°47' W 080°10'0 0.0
2017-Dec-07 07:58N 25°47' W 080°10'0 0.0
2017-Dec-07 07:28N 25°47' W 080°10'0 0.0
2017-Dec-07 06:58N 25°47' W 080°10'0 0.0
2017-Dec-07 06:28N 25°47' W 080°10'0 0.0
2017-Dec-07 05:58N 25°47' W 080°10'0 0.0
2017-Dec-07 05:28N 25°47' W 080°10'0 0.0
2017-Dec-07 04:58N 25°47' W 080°10'0 0.0
2017-Dec-07 04:28N 25°47' W 080°10'0 0.0
2017-Dec-07 03:58N 25°47' W 080°10'0 0.0
2017-Dec-07 03:28N 25°47' W 080°10'0 0.0
2017-Dec-07 02:58N 25°47' W 080°10'0 0.0
2017-Dec-07 02:25N 25°47' W 080°10'0 0.2
2017-Dec-07 02:01N 25°47' W 080°10'2 3.1
2017-Dec-07 01:30N 25°46' W 080°09'2 3.0
2017-Dec-07 00:57N 25°47' W 080°10'0 0.0
2017-Dec-07 00:30N 25°47' W 080°10'0 0.0
2017-Dec-07 00:00N 25°47' W 080°10'0 0.0
2017-Dec-06 23:30N 25°47' W 080°10'0 0.0
2017-Dec-06 23:01N 25°47' W 080°10'1 0.9
2017-Dec-06 22:28N 25°47' W 080°11'0 0.0
2017-Dec-06 21:58N 25°47' W 080°11'0 0.0
2017-Dec-06 21:28N 25°47' W 080°11'0 0.0
2017-Dec-06 20:58N 25°47' W 080°11'  
Track history (hours):
 
Tides and Currents Weather Stations Pressure Air Temp Water Temp Dewpoint Dewpoint Depression Visibility Wind Speed Wind Dir Waves Ship Positions

Miami

Owner: Kirby Inland Marine LP, Houston, TX. More information available from US FCC via Universal Licensing System and Coast Guard Vessel Documentation Center.

Last reported at 2017-Dec-15 09:28 UTC. Time now 2017-Dec-15 09:57 UTC.
Position N 25°47' W 080°10'.

Length 83 m; draft 4 m.

Type: Tug. MMSI: 367479630.

Date/timePositionNaut miles runAvg speedWind from/ knotsBaromVisibWave heightAir tempDewpointWater temp
2017-Dec-15 09:28N 25°47' W 080°10'0 0.0
2017-Dec-15 08:58N 25°47' W 080°10'0 0.0
2017-Dec-15 08:28N 25°47' W 080°10'0 0.0
2017-Dec-15 07:58N 25°47' W 080°10'0 0.0
2017-Dec-15 07:28N 25°47' W 080°10'0 0.0
2017-Dec-15 06:58N 25°47' W 080°10'0 0.0
2017-Dec-15 06:28N 25°47' W 080°10'0 0.0
2017-Dec-15 05:58N 25°47' W 080°10'0 0.0
2017-Dec-15 05:28N 25°47' W 080°10'0 0.0
2017-Dec-15 04:58N 25°47' W 080°10'0 0.0
2017-Dec-15 04:25N 25°47' W 080°10'0 0.0
2017-Dec-15 03:55N 25°47' W 080°10'2 1.1
2017-Dec-15 02:29N 25°46' W 080°08'0 0.0
2017-Dec-15 00:59N 25°46' W 080°08'0 0.0
2017-Dec-15 00:29N 25°46' W 080°08'2 0.3
2017-Dec-14 18:28N 25°46' W 080°11'1 1.4
2017-Dec-14 18:00N 25°46' W 080°10'1 2.4
2017-Dec-14 17:30N 25°46' W 080°09'2 3.8
2017-Dec-14 16:59N 25°47' W 080°11'0 0.0
2017-Dec-14 16:29N 25°47' W 080°11'0 0.0
2017-Dec-14 15:59N 25°47' W 080°11'0 0.0
2017-Dec-14 14:59N 25°47' W 080°11'0 0.0
2017-Dec-14 14:29N 25°47' W 080°11'0 0.0
2017-Dec-14 13:59N 25°47' W 080°11'0 0.0
2017-Dec-14 13:29N 25°47' W 080°11'0 0.0
2017-Dec-14 12:59N 25°47' W 080°11'1 1.7
2017-Dec-14 12:30N 25°46' W 080°10'0 0.1
2017-Dec-14 12:00N 25°46' W 080°10'1 2.6
2017-Dec-14 11:30N 25°46' W 080°08'1 2.4
2017-Dec-14 10:59N 25°46' W 080°10'0 0.0
2017-Dec-14 10:29N 25°46' W 080°10'0 0.0
2017-Dec-14 09:59N 25°46' W 080°10'0 0.0
2017-Dec-14 09:29N 25°46' W 080°10'0 0.0
2017-Dec-14 08:59N 25°46' W 080°10'0 0.0
2017-Dec-14 08:29N 25°46' W 080°10'0 0.0
2017-Dec-14 07:59N 25°46' W 080°10'0 0.0
2017-Dec-14 07:29N 25°46' W 080°10'0 0.0
2017-Dec-14 06:50N 25°46' W 080°10'0 0.0
2017-Dec-14 06:26N 25°46' W 080°10'0 0.0
2017-Dec-14 05:59N 25°46' W 080°10'0 0.0
2017-Dec-14 05:29N 25°46' W 080°10'0 0.0
2017-Dec-14 04:56N 25°46' W 080°10'0 0.0
2017-Dec-14 04:29N 25°46' W 080°10'0 0.0
2017-Dec-14 03:59N 25°46' W 080°10'0 0.0
2017-Dec-14 03:26N 25°46' W 080°10'0 0.0
2017-Dec-14 02:56N 25°46' W 080°10'0 0.0
2017-Dec-14 02:29N 25°46' W 080°10'0 0.0
2017-Dec-14 01:59N 25°46' W 080°10'0 0.0
2017-Dec-14 01:26N 25°46' W 080°10'0 0.0
2017-Dec-14 00:56N 25°46' W 080°10'0 0.0
2017-Dec-14 00:29N 25°46' W 080°10'0 0.0
2017-Dec-13 23:59N 25°46' W 080°10'0 0.0
2017-Dec-13 23:30N 25°46' W 080°10'0 0.8
2017-Dec-13 23:00N 25°46' W 080°10'0 0.0
2017-Dec-13 22:30N 25°46' W 080°10'0 0.0
2017-Dec-13 22:01N 25°46' W 080°10'0 0.0
2017-Dec-13 21:30N 25°46' W 080°10'0 0.0
2017-Dec-13 21:00N 25°46' W 080°10'0 0.0
2017-Dec-13 20:30N 25°46' W 080°10'0 0.0
2017-Dec-13 20:00N 25°46' W 080°10'0 0.0
2017-Dec-13 19:31N 25°46' W 080°10'0 0.0
2017-Dec-13 19:01N 25°46' W 080°10'1 2.5
2017-Dec-13 18:30N 25°46' W 080°08'2 3.5
2017-Dec-13 18:00N 25°46' W 080°10'0 0.5
2017-Dec-13 17:30N 25°46' W 080°11'0 0.0
2017-Dec-13 16:55N 25°46' W 080°11'0 0.0
2017-Dec-13 16:28N 25°46' W 080°11'0 0.0
2017-Dec-13 15:55N 25°46' W 080°11'0 0.0
2017-Dec-13 15:22N 25°46' W 080°11'0 0.0
2017-Dec-13 14:55N 25°46' W 080°11'0 0.0
2017-Dec-13 14:25N 25°46' W 080°11'0 0.0
2017-Dec-13 13:58N 25°46' W 080°11'0 0.0
2017-Dec-13 13:25N 25°46' W 080°11'0 0.0
2017-Dec-13 12:58N 25°46' W 080°11'0 0.0
2017-Dec-13 12:28N 25°46' W 080°11'1 2.2
2017-Dec-13 12:00N 25°46' W 080°10'1 1.4
2017-Dec-13 11:30N 25°46' W 080°09'1 2.6
2017-Dec-13 10:59N 25°46' W 080°10'0 0.0
2017-Dec-13 10:29N 25°46' W 080°10'0 0.0
2017-Dec-13 09:56N 25°46' W 080°10'0 0.0
2017-Dec-13 09:26N 25°46' W 080°10'0 0.0
2017-Dec-13 08:59N 25°46' W 080°10'0 0.0
2017-Dec-13 08:29N 25°46' W 080°10'0 0.0
2017-Dec-13 07:59N 25°46' W 080°10'0 0.0
2017-Dec-13 07:29N 25°46' W 080°10'0 0.0
2017-Dec-13 06:59N 25°46' W 080°10'0 0.0
2017-Dec-13 06:29N 25°46' W 080°10'0 0.0
2017-Dec-13 05:59N 25°46' W 080°10'0 0.0
2017-Dec-13 05:29N 25°46' W 080°10'0 0.0
2017-Dec-13 04:59N 25°46' W 080°10'0 0.0
2017-Dec-13 04:29N 25°46' W 080°10'0 0.0
2017-Dec-13 03:59N 25°46' W 080°10'0 0.0
2017-Dec-13 03:29N 25°46' W 080°10'0 0.0
2017-Dec-13 02:59N 25°46' W 080°10'0 0.0
2017-Dec-13 02:29N 25°46' W 080°10'0 0.0
2017-Dec-13 01:59N 25°46' W 080°10'0 0.0
2017-Dec-13 01:29N 25°46' W 080°10'0 0.0
2017-Dec-13 00:59N 25°46' W 080°10'0 0.0
2017-Dec-13 00:29N 25°46' W 080°10'2 3.2
2017-Dec-12 23:59N 25°46' W 080°09'0 0.0
2017-Dec-12 23:29N 25°46' W 080°09'0 0.0
2017-Dec-12 22:59N 25°46' W 080°09'0 0.0
2017-Dec-12 22:29N 25°46' W 080°09'0 0.0
2017-Dec-12 21:59N 25°46' W 080°09'0 0.0
2017-Dec-12 21:29N 25°46' W 080°09'0 0.1
2017-Dec-12 20:56N 25°46' W 080°08'0 0.0
2017-Dec-12 20:29N 25°46' W 080°08'0 0.0
2017-Dec-12 19:53N 25°46' W 080°08'0 0.0
2017-Dec-12 19:29N 25°46' W 080°08'2 3.2
2017-Dec-12 18:58N 25°47' W 080°10'0 0.0
2017-Dec-12 18:25N 25°47' W 080°10'0 0.0
2017-Dec-12 17:58N 25°47' W 080°10'1 2.0
2017-Dec-12 17:30N 25°46' W 080°09'1 1.7
2017-Dec-12 16:54N 25°46' W 080°10'0 0.8
2017-Dec-12 16:29N 25°46' W 080°11'0 0.0
2017-Dec-12 15:59N 25°46' W 080°11'0 0.0
2017-Dec-12 15:29N 25°46' W 080°11'0 0.0
2017-Dec-12 14:59N 25°46' W 080°11'0 0.0
2017-Dec-12 14:26N 25°46' W 080°11'0 0.0
2017-Dec-12 13:59N 25°46' W 080°11'0 0.0
2017-Dec-12 13:26N 25°46' W 080°11'0 0.0
2017-Dec-12 12:59N 25°46' W 080°11'0 0.9
2017-Dec-12 12:29N 25°46' W 080°10'0 0.0
2017-Dec-12 11:59N 25°46' W 080°10'0 0.0
2017-Dec-12 11:29N 25°46' W 080°10'0 0.0
2017-Dec-12 10:59N 25°46' W 080°10'0 0.0
2017-Dec-12 10:29N 25°46' W 080°10'0 0.0
2017-Dec-12 09:59N 25°46' W 080°10'0 0.0
2017-Dec-12 09:29N 25°46' W 080°10'0 0.0
2017-Dec-12 08:59N 25°46' W 080°10'0 0.0
2017-Dec-12 08:29N 25°46' W 080°10'0 0.0
2017-Dec-12 07:59N 25°46' W 080°10'0 0.0
2017-Dec-12 07:26N 25°46' W 080°10'0 0.0
2017-Dec-12 06:56N 25°46' W 080°10'0 0.0
2017-Dec-12 06:29N 25°46' W 080°10'0 0.0
2017-Dec-12 05:59N 25°46' W 080°10'0 0.0
2017-Dec-12 05:29N 25°46' W 080°10'0 0.0
2017-Dec-12 04:59N 25°46' W 080°10'0 0.0
2017-Dec-12 04:29N 25°46' W 080°10'0 0.0
2017-Dec-12 03:59N 25°46' W 080°10'0 0.0
2017-Dec-12 03:26N 25°46' W 080°10'0 0.0
2017-Dec-12 02:59N 25°46' W 080°10'0 0.0
2017-Dec-12 02:26N 25°46' W 080°10'0 0.0
2017-Dec-12 01:56N 25°46' W 080°10'0 0.0
2017-Dec-12 01:26N 25°46' W 080°10'0 0.0
2017-Dec-12 00:59N 25°46' W 080°10'0 0.0
2017-Dec-12 00:29N 25°46' W 080°10'0 0.0
2017-Dec-11 23:59N 25°46' W 080°10'0 0.0
2017-Dec-11 23:29N 25°46' W 080°10'0 0.0
2017-Dec-11 22:56N 25°46' W 080°10'0 0.0
2017-Dec-11 22:29N 25°46' W 080°10'0 0.0
2017-Dec-11 21:59N 25°46' W 080°10'0 0.0
2017-Dec-11 21:29N 25°46' W 080°10'0 0.0
2017-Dec-11 20:59N 25°46' W 080°10'0 0.0
2017-Dec-11 20:29N 25°46' W 080°10'1 3.1
2017-Dec-11 20:00N 25°46' W 080°09'1 2.2
2017-Dec-11 19:30N 25°46' W 080°10'0 0.6
2017-Dec-11 18:58N 25°46' W 080°10'2 3.4
2017-Dec-11 18:30N 25°46' W 080°09'0 0.0
2017-Dec-11 15:35N 25°46' W 080°09'0 0.6
2017-Dec-11 15:22N 25°46' W 080°08'1 3.3
2017-Dec-11 14:57N 25°46' W 080°10'1 1.3
2017-Dec-11 14:30N 25°46' W 080°11'0 0.0
2017-Dec-11 14:00N 25°46' W 080°11'0 0.0
2017-Dec-11 13:30N 25°46' W 080°11'0 0.0
2017-Dec-11 13:00N 25°46' W 080°11'0 0.0
2017-Dec-11 12:30N 25°46' W 080°11'0 0.0
2017-Dec-11 12:00N 25°46' W 080°11'0 0.0
2017-Dec-11 11:30N 25°46' W 080°11'0 0.0
2017-Dec-11 11:00N 25°46' W 080°11'0 0.0
2017-Dec-11 10:30N 25°46' W 080°11'0 0.0
2017-Dec-11 10:00N 25°46' W 080°11'0 0.0
2017-Dec-11 09:30N 25°46' W 080°11'0 0.0
2017-Dec-11 09:00N 25°46' W 080°11'0 0.0
2017-Dec-11 08:30N 25°46' W 080°11'0 0.0
2017-Dec-11 08:00N 25°46' W 080°11'0 0.0
2017-Dec-11 07:30N 25°46' W 080°11'0 0.0
2017-Dec-11 06:57N 25°46' W 080°11'0 0.0
2017-Dec-11 06:30N 25°46' W 080°11'0 0.0
2017-Dec-11 06:00N 25°46' W 080°11'0 0.0
2017-Dec-11 05:27N 25°46' W 080°11'0 0.0
2017-Dec-11 05:00N 25°46' W 080°11'0 0.0
2017-Dec-11 04:30N 25°46' W 080°11'0 0.0
2017-Dec-11 04:00N 25°46' W 080°11'0 0.0
2017-Dec-11 03:30N 25°46' W 080°11'0 0.0
2017-Dec-11 03:00N 25°46' W 080°11'0 0.0
2017-Dec-11 02:30N 25°46' W 080°11'0 0.0
2017-Dec-11 02:00N 25°46' W 080°11'0 0.0
2017-Dec-11 01:30N 25°46' W 080°11'0 0.0
2017-Dec-11 01:00N 25°46' W 080°11'0 0.0
2017-Dec-11 00:30N 25°46' W 080°11'0 0.0
2017-Dec-11 00:00N 25°46' W 080°11'0 0.0
2017-Dec-10 23:30N 25°46' W 080°11'0 0.0
2017-Dec-10 23:00N 25°46' W 080°11'0 0.0
2017-Dec-10 22:27N 25°46' W 080°11'0 0.0
2017-Dec-10 22:00N 25°46' W 080°11'0 0.0
2017-Dec-10 21:30N 25°46' W 080°11'0 0.0
2017-Dec-10 21:00N 25°46' W 080°11'0 0.0
2017-Dec-10 20:30N 25°46' W 080°11'0 0.0
2017-Dec-10 20:00N 25°46' W 080°11'0 0.0
2017-Dec-10 19:30N 25°46' W 080°11'0 0.0
2017-Dec-10 18:54N 25°46' W 080°11'1 1.5
2017-Dec-10 18:26N 25°46' W 080°10'1 1.5
2017-Dec-10 17:56N 25°46' W 080°11'0 0.0
2017-Dec-10 17:23N 25°46' W 080°11'0 0.0
2017-Dec-10 16:56N 25°46' W 080°11'0 0.0
2017-Dec-10 16:20N 25°46' W 080°11'0 0.0
2017-Dec-10 15:59N 25°46' W 080°11'0 0.0
2017-Dec-10 15:23N 25°46' W 080°11'0 0.0
2017-Dec-10 14:59N 25°46' W 080°11'0 0.0
2017-Dec-10 14:29N 25°46' W 080°11'0 0.0
2017-Dec-10 13:59N 25°46' W 080°11'0 0.0
2017-Dec-10 13:26N 25°46' W 080°11'0 0.0
2017-Dec-10 12:59N 25°46' W 080°11'1 1.5
2017-Dec-10 12:27N 25°46' W 080°10'0 0.0
2017-Dec-10 12:00N 25°46' W 080°10'0 0.0
2017-Dec-10 11:30N 25°46' W 080°10'0 0.0
2017-Dec-10 11:00N 25°46' W 080°10'0 0.0
2017-Dec-10 10:30N 25°46' W 080°10'0 0.0
2017-Dec-10 09:54N 25°46' W 080°10'0 0.0
2017-Dec-10 09:27N 25°46' W 080°10'0 0.0
2017-Dec-10 09:00N 25°46' W 080°10'0 0.0
2017-Dec-10 08:30N 25°46' W 080°10'0 0.0
2017-Dec-10 08:00N 25°46' W 080°10'0 0.0
2017-Dec-10 07:30N 25°46' W 080°10'0 0.0
2017-Dec-10 07:00N 25°46' W 080°10'0 0.0
2017-Dec-10 06:30N 25°46' W 080°10'0 0.0
2017-Dec-10 06:00N 25°46' W 080°10'0 0.0
2017-Dec-10 05:30N 25°46' W 080°10'0 0.0
2017-Dec-10 05:00N 25°46' W 080°10'0 0.0
2017-Dec-10 04:30N 25°46' W 080°10'0 0.0
2017-Dec-10 04:00N 25°46' W 080°10'0 0.0
2017-Dec-10 03:30N 25°46' W 080°10'0 0.0
2017-Dec-10 03:00N 25°46' W 080°10'0 0.0
2017-Dec-10 02:30N 25°46' W 080°10'0 0.0
2017-Dec-10 02:00N 25°46' W 080°10'0 0.0
2017-Dec-10 01:30N 25°46' W 080°10'0 0.0
2017-Dec-10 01:00N 25°46' W 080°10'0 0.0
2017-Dec-10 00:30N 25°46' W 080°10'0 0.0
2017-Dec-10 00:00N 25°46' W 080°10'0 0.0
2017-Dec-09 23:30N 25°46' W 080°10'0 0.0
2017-Dec-09 23:00N 25°46' W 080°10'0 0.0
2017-Dec-09 22:30N 25°46' W 080°10'0 0.0
2017-Dec-09 22:00N 25°46' W 080°10'0 0.0
2017-Dec-09 21:30N 25°46' W 080°10'0 0.0
2017-Dec-09 21:00N 25°46' W 080°10'0 0.0
2017-Dec-09 20:30N 25°46' W 080°10'0 0.0
2017-Dec-09 20:00N 25°46' W 080°10'0 0.0
2017-Dec-09 19:30N 25°46' W 080°10'0 0.5
2017-Dec-09 19:00N 25°46' W 080°10'1 1.2
2017-Dec-09 18:29N 25°46' W 080°10'0 0.0
2017-Dec-09 17:59N 25°46' W 080°10'0 0.0
2017-Dec-09 17:23N 25°47' W 080°10'0 0.0
2017-Dec-09 16:59N 25°47' W 080°10'0 0.0
2017-Dec-09 16:29N 25°47' W 080°10'0 0.0
2017-Dec-09 15:56N 25°47' W 080°10'0 0.0
2017-Dec-09 15:29N 25°47' W 080°10'0 0.0
2017-Dec-09 14:56N 25°47' W 080°10'0 0.0
2017-Dec-09 14:29N 25°47' W 080°10'0 0.0
2017-Dec-09 13:56N 25°47' W 080°10'0 0.0
2017-Dec-09 13:29N 25°47' W 080°10'0 0.0
2017-Dec-09 12:59N 25°47' W 080°10'0 0.0
2017-Dec-09 12:29N 25°47' W 080°10'1 1.7
2017-Dec-09 12:00N 25°46' W 080°09'1 1.4
2017-Dec-09 11:29N 25°46' W 080°10'0 0.2
2017-Dec-09 10:58N 25°46' W 080°10'0 0.0
2017-Dec-09 10:28N 25°46' W 080°10'0 0.0
2017-Dec-09 09:58N 25°46' W 080°10'0 0.0
2017-Dec-09 09:25N 25°46' W 080°10'0 0.0
2017-Dec-09 08:58N 25°46' W 080°10'0 0.0
2017-Dec-09 08:25N 25°46' W 080°10'0 0.0
2017-Dec-09 07:52N 25°46' W 080°10'0 0.0
2017-Dec-09 07:28N 25°46' W 080°10'0 0.0
2017-Dec-09 06:58N 25°46' W 080°10'0 0.0
2017-Dec-09 06:28N 25°46' W 080°10'0 0.0
2017-Dec-09 05:58N 25°46' W 080°10'0 0.0
2017-Dec-09 05:28N 25°46' W 080°10'0 0.0
2017-Dec-09 04:58N 25°46' W 080°10'0 0.0
2017-Dec-09 04:28N 25°46' W 080°10'0 0.0
2017-Dec-09 03:58N 25°46' W 080°10'0 0.0
2017-Dec-09 03:28N 25°46' W 080°10'0 0.0
2017-Dec-09 02:58N 25°46' W 080°10'0 0.0
2017-Dec-09 02:25N 25°46' W 080°10'0 0.0
2017-Dec-09 01:58N 25°46' W 080°10'0 0.0
2017-Dec-09 01:28N 25°46' W 080°10'0 0.0
2017-Dec-09 00:58N 25°46' W 080°10'0 0.0
2017-Dec-09 00:28N 25°46' W 080°10'0 0.0
2017-Dec-08 23:58N 25°46' W 080°10'0 0.0
2017-Dec-08 23:28N 25°46' W 080°10'0 0.0
2017-Dec-08 22:58N 25°46' W 080°10'0 0.0
2017-Dec-08 22:28N 25°46' W 080°10'0 0.0
2017-Dec-08 21:58N 25°46' W 080°10'0 0.0
2017-Dec-08 21:28N 25°46' W 080°10'0 0.0
2017-Dec-08 20:58N 25°46' W 080°10'0 0.2
2017-Dec-08 20:29N 25°46' W 080°10'0 0.1
2017-Dec-08 20:00N 25°46' W 080°10'1 2.1
2017-Dec-08 19:28N 25°46' W 080°09'1 2.2
2017-Dec-08 19:00N 25°46' W 080°09'0 0.8
2017-Dec-08 18:29N 25°47' W 080°10'0 0.0
2017-Dec-08 17:59N 25°47' W 080°10'0 0.0
2017-Dec-08 17:29N 25°47' W 080°10'0 0.0
2017-Dec-08 16:59N 25°47' W 080°10'0 0.0
2017-Dec-08 16:29N 25°47' W 080°10'0 0.0
2017-Dec-08 15:59N 25°47' W 080°10'0 0.0
2017-Dec-08 15:29N 25°47' W 080°10'0 0.0
2017-Dec-08 14:59N 25°47' W 080°10'0 0.0
2017-Dec-08 14:29N 25°47' W 080°10'0 0.0
2017-Dec-08 13:59N 25°47' W 080°10'0 0.0
2017-Dec-08 13:29N 25°47' W 080°10'1 2.6
2017-Dec-08 13:00N 25°46' W 080°09'1 1.9
2017-Dec-08 12:28N 25°46' W 080°10'1 1.0
2017-Dec-08 11:58N 25°46' W 080°10'0 0.0
2017-Dec-08 11:28N 25°46' W 080°10'0 0.0
2017-Dec-08 10:58N 25°46' W 080°10'0 0.0
2017-Dec-08 10:28N 25°46' W 080°10'0 0.0
2017-Dec-08 09:58N 25°46' W 080°10'0 0.0
2017-Dec-08 09:22N 25°46' W 080°10'0 0.0
2017-Dec-08 08:58N 25°46' W 080°10'0 0.0
2017-Dec-08 08:28N 25°46' W 080°10'0 0.0
2017-Dec-08 07:58N 25°46' W 080°10'0 0.0
2017-Dec-08 07:22N 25°46' W 080°10'0 0.0
2017-Dec-08 06:55N 25°46' W 080°10'0 0.0
2017-Dec-08 06:28N 25°46' W 080°10'0 0.0
2017-Dec-08 05:55N 25°46' W 080°10'0 0.0
2017-Dec-08 05:28N 25°46' W 080°10'0 0.0
2017-Dec-08 04:55N 25°46' W 080°10'0 0.0
2017-Dec-08 04:28N 25°46' W 080°10'0 0.0
2017-Dec-08 03:58N 25°46' W 080°10'0 0.0
2017-Dec-08 03:28N 25°46' W 080°10'0 0.0
2017-Dec-08 02:58N 25°46' W 080°10'0 0.0
2017-Dec-08 02:28N 25°46' W 080°10'0 0.0
2017-Dec-08 01:58N 25°46' W 080°10'0 0.0
2017-Dec-08 01:28N 25°46' W 080°10'0 0.0
2017-Dec-08 00:58N 25°46' W 080°10'0 0.0
2017-Dec-08 00:28N 25°46' W 080°10'0 0.0
2017-Dec-07 23:58N 25°46' W 080°10'0 0.0
2017-Dec-07 23:28N 25°46' W 080°10'0 0.0
2017-Dec-07 22:58N 25°46' W 080°10'0 0.0
2017-Dec-07 22:28N 25°46' W 080°10'0 0.3
2017-Dec-07 22:00N 25°46' W 080°11'0 0.0
2017-Dec-07 21:30N 25°46' W 080°11'0 0.0
2017-Dec-07 21:00N 25°46' W 080°11'0 0.0
2017-Dec-07 20:30N 25°46' W 080°11'0 0.0
2017-Dec-07 20:00N 25°46' W 080°11'0 0.0
2017-Dec-07 19:30N 25°46' W 080°11'0 0.0
2017-Dec-07 18:58N 25°46' W 080°11'0 0.0
2017-Dec-07 18:29N 25°46' W 080°11'0 0.0
2017-Dec-07 17:59N 25°46' W 080°11'0 0.0
2017-Dec-07 17:28N 25°46' W 080°11'1 1.4
2017-Dec-07 16:59N 25°46' W 080°10'0 1.0
2017-Dec-07 16:30N 25°47' W 080°10'0 0.2
2017-Dec-07 15:59N 25°47' W 080°10'0 0.0
2017-Dec-07 15:29N 25°47' W 080°10'0 0.0
2017-Dec-07 14:59N 25°47' W 080°10'0 0.0
2017-Dec-07 14:29N 25°47' W 080°10'0 0.0
2017-Dec-07 13:59N 25°47' W 080°10'0 0.0
2017-Dec-07 13:29N 25°47' W 080°10'0 0.0
2017-Dec-07 12:59N 25°47' W 080°10'0 0.6
2017-Dec-07 12:28N 25°47' W 080°10'0 0.0
2017-Dec-07 11:55N 25°47' W 080°10'0 0.0
2017-Dec-07 11:25N 25°47' W 080°10'0 0.0
2017-Dec-07 10:55N 25°47' W 080°10'0 0.0
2017-Dec-07 10:28N 25°47' W 080°10'0 0.0
2017-Dec-07 09:58N 25°47' W 080°10'0 0.0
2017-Dec-07 09:28N 25°47' W 080°10'0 0.0
2017-Dec-07 08:58N 25°47' W 080°10'0 0.0
2017-Dec-07 08:28N 25°47' W 080°10'0 0.0
2017-Dec-07 07:58N 25°47' W 080°10'0 0.0
2017-Dec-07 07:28N 25°47' W 080°10'0 0.0
2017-Dec-07 06:58N 25°47' W 080°10'0 0.0
2017-Dec-07 06:28N 25°47' W 080°10'0 0.0
2017-Dec-07 05:58N 25°47' W 080°10'0 0.0
2017-Dec-07 05:28N 25°47' W 080°10'0 0.0
2017-Dec-07 04:58N 25°47' W 080°10'0 0.0
2017-Dec-07 04:28N 25°47' W 080°10'0 0.0
2017-Dec-07 03:58N 25°47' W 080°10'0 0.0
2017-Dec-07 03:28N 25°47' W 080°10'0 0.0
2017-Dec-07 02:58N 25°47' W 080°10'0 0.0
2017-Dec-07 02:25N 25°47' W 080°10'0 0.2
2017-Dec-07 02:01N 25°47' W 080°10'2 3.1
2017-Dec-07 01:30N 25°46' W 080°09'2 3.0
2017-Dec-07 00:57N 25°47' W 080°10'0 0.0
2017-Dec-07 00:30N 25°47' W 080°10'0 0.0
2017-Dec-07 00:00N 25°47' W 080°10'0 0.0
2017-Dec-06 23:30N 25°47' W 080°10'0 0.0
2017-Dec-06 23:01N 25°47' W 080°10'1 0.9
2017-Dec-06 22:28N 25°47' W 080°11'0 0.0
2017-Dec-06 21:58N 25°47' W 080°11'0 0.0
2017-Dec-06 21:28N 25°47' W 080°11'0 0.0
2017-Dec-06 20:58N 25°47' W 080°11'  

Dump ship's entire track history